Time;durP1;ratioP1;P1;durP2;ratioP2;P2;SDS_P1;SDS_P2;PMS_P1;PMS_P2;Temp;Humidity;BMP_temperature;BMP_pressure;BME280_temperature;BME280_humidity;BME280_pressure;Samples;Min_cycle;Max_cycle;Signal;HPM_P1;HPM_P2
2021/07/11 00:01:08;;;;;;;;;;;;;;;14.70;74.15;101134.67;1600461;88;20226;-77
2021/07/11 00:03:34;;;;;;;;;;;;;;;14.66;73.99;101136.09;1616546;88;20163;-77
2021/07/11 00:06:00;;;;;;;;;;;;;;;14.63;74.09;101137.47;1616976;87;20183;-77
2021/07/11 00:08:26;;;;;;;;;;;;;;;14.60;74.11;101133.63;1610579;87;20119;-77
2021/07/11 00:10:52;;;;;;;;;;;;;;;14.59;74.35;101128.87;1611983;88;20148;-77
2021/07/11 00:13:19;;;;;;;;;;;;;;;14.61;74.32;101136.64;1616386;87;20146;-77
2021/07/11 00:15:45;;;;;;;;;;;;;;;14.59;74.39;101131.48;1616436;87;20219;-77
2021/07/11 00:18:11;;;;;;;;;;;;;;;14.57;74.32;101126.31;1623944;86;20230;-77
2021/07/11 00:20:37;;;;;;;;;;;;;;;14.54;74.43;101125.11;1616487;87;20129;-77
2021/07/11 00:23:03;;;;;;;;;;;;;;;14.53;74.38;101125.15;1611639;86;409818;-77
2021/07/11 00:25:30;;;;;;;;;;;;;;;14.52;74.53;101127.34;1616398;88;20171;-77
2021/07/11 00:27:56;;;;;;;;;;;;;;;14.50;74.62;101120.88;1616382;88;20141;-77
2021/07/11 00:30:23;;;;;;;;;;;;;;;14.52;74.73;101119.09;1621241;88;20114;-77
2021/07/11 00:32:50;;;;;;;;;;;;;;;14.51;74.74;101121.28;1616294;87;20137;-77
2021/07/11 00:35:16;;;;;;;;;;;;;;;14.51;74.66;101121.28;1615828;88;20101;-77
2021/07/11 00:37:43;;;;;;;;;;;;;;;14.50;74.66;101122.63;1615916;87;20136;-77
2021/07/11 00:40:13;;;;;;;;;;;;;;;14.46;74.70;101125.74;1616054;88;20137;-77
2021/07/11 00:42:40;;;;;;;;;;;;;;;14.44;74.84;101131.42;1615830;88;20129;-76
2021/07/11 00:45:08;;;;;;;;;;;;;;;14.41;74.72;101131.50;1594103;88;20100;-76
2021/07/11 00:47:39;;;;;;;;;;;;;;;14.36;74.68;101133.77;1615983;88;20112;-76
2021/07/11 00:50:10;;;;;;;;;;;;;;;14.32;74.71;101130.82;1615761;88;20112;-76
2021/07/11 00:52:37;;;;;;;;;;;;;;;14.28;74.80;101133.08;1615912;88;20167;-76
2021/07/11 00:55:04;;;;;;;;;;;;;;;14.24;74.84;101142.70;1615889;88;20109;-76
2021/07/11 00:57:30;;;;;;;;;;;;;;;14.22;74.96;101136.68;1615783;88;20133;-76
2021/07/11 00:59:58;;;;;;;;;;;;;;;14.18;74.73;101138.49;1615974;88;20141;-76
2021/07/11 01:02:27;;;;;;;;;;;;;;;14.11;74.75;101139.52;1616052;88;20132;-77
2021/07/11 01:05:05;;;;;;;;;;;;;;;14.09;74.94;101135.23;1615174;87;20104;-77
2021/07/11 01:07:35;;;;;;;;;;;;;;;14.10;75.11;101131.30;1627825;87;20109;-77
2021/07/11 01:10:11;;;;;;;;;;;;;;;14.13;75.23;101139.03;1616096;88;20153;-77
2021/07/11 01:12:40;;;;;;;;;;;;;;;14.14;75.17;101138.15;1613618;87;20137;-77
2021/07/11 01:15:07;;;;;;;;;;;;;;;14.14;75.23;101138.59;1615571;88;20157;-77
2021/07/11 01:17:35;;;;;;;;;;;;;;;14.12;75.22;101137.77;1615933;88;20105;-77
2021/07/11 01:20:26;;;;;;;;;;;;;;;14.12;75.28;101139.08;1616061;88;20105;-77
2021/07/11 01:22:55;;;;;;;;;;;;;;;14.12;75.28;101145.57;1597768;88;20116;-77
2021/07/11 01:25:36;;;;;;;;;;;;;;;14.11;75.35;101139.52;1615721;88;20792;-77
2021/07/11 01:28:05;;;;;;;;;;;;;;;14.10;75.38;101139.11;1615913;88;20521;-77
2021/07/11 01:30:32;;;;;;;;;;;;;;;14.09;75.35;101139.14;1615271;88;20140;-77
2021/07/11 01:32:59;;;;;;;;;;;;;;;14.06;75.32;101134.86;1613683;87;20313;-77
2021/07/11 01:35:25;;;;;;;;;;;;;;;14.01;75.24;101138.03;1613836;87;20197;-77
2021/07/11 01:37:52;;;;;;;;;;;;;;;13.97;75.30;101142.89;1613567;87;20627;-77
2021/07/11 01:40:19;;;;;;;;;;;;;;;13.95;75.51;101136.87;1613875;88;20236;-77
2021/07/11 01:42:46;;;;;;;;;;;;;;;13.97;75.46;101139.44;1613564;88;20220;-76
2021/07/11 01:45:13;;;;;;;;;;;;;;;13.94;75.52;101140.80;1613848;87;20467;-76
2021/07/11 01:47:40;;;;;;;;;;;;;;;13.94;75.62;101136.45;1615117;88;20300;-76
2021/07/11 01:50:07;;;;;;;;;;;;;;;13.91;75.57;101139.98;1613896;88;20212;-76
2021/07/11 01:52:40;;;;;;;;;;;;;;;13.91;75.74;101139.98;1590929;88;20117;-76
2021/07/11 01:55:09;;;;;;;;;;;;;;;13.91;75.75;101138.68;1616023;88;20117;-76
2021/07/11 01:57:36;;;;;;;;;;;;;;;13.92;75.75;101142.13;1615712;88;20731;-76
2021/07/11 02:00:05;;;;;;;;;;;;;;;13.90;75.64;101144.77;1616045;88;20532;-76
2021/07/11 02:02:31;;;;;;;;;;;;;;;13.87;75.70;101143.53;1615739;87;20116;-76
2021/07/11 02:04:57;;;;;;;;;;;;;;;13.84;75.73;101145.34;1615964;88;20161;-76
2021/07/11 02:07:23;;;;;;;;;;;;;;;13.79;75.79;101148.03;1624370;88;20152;-76
2021/07/11 02:09:53;;;;;;;;;;;;;;;13.78;75.88;101146.31;1615249;88;20113;-76
2021/07/11 02:12:21;;;;;;;;;;;;;;;13.78;75.93;101152.81;1615871;88;20183;-76
2021/07/11 02:14:48;;;;;;;;;;;;;;;13.78;76.00;101151.52;1615865;88;20109;-76
2021/07/11 02:17:17;;;;;;;;;;;;;;;13.74;75.83;101150.31;1614582;87;20112;-77
2021/07/11 02:19:44;;;;;;;;;;;;;;;13.73;75.96;101152.05;1615940;88;20117;-77
2021/07/11 02:22:15;;;;;;;;;;;;;;;13.71;75.99;101155.57;1615452;88;20134;-77
2021/07/11 02:24:43;;;;;;;;;;;;;;;13.69;76.01;101158.64;1615966;87;20113;-77
2021/07/11 02:27:10;;;;;;;;;;;;;;;13.69;76.09;101162.54;1615855;88;20109;-77
2021/07/11 02:29:41;;;;;;;;;;;;;;;13.69;76.09;101161.24;1602756;88;20115;-77
2021/07/11 02:32:09;;;;;;;;;;;;;;;13.66;76.16;101162.16;1615495;87;20137;-77
2021/07/11 02:34:39;;;;;;;;;;;;;;;13.65;76.12;101168.24;1592745;88;20116;-77
2021/07/11 02:37:08;;;;;;;;;;;;;;;13.65;76.17;101164.78;1612363;88;20100;-77
2021/07/11 02:39:36;;;;;;;;;;;;;;;13.62;76.16;101164.41;1614708;88;20515;-77
2021/07/11 02:42:05;;;;;;;;;;;;;;;13.57;76.02;101162.34;1612388;87;20140;-77
2021/07/11 02:44:31;;;;;;;;;;;;;;;13.55;76.17;101162.37;1615492;88;20121;-77
2021/07/11 02:47:00;;;;;;;;;;;;;;;13.55;76.17;101159.77;1613196;88;20133;-77
2021/07/11 02:49:28;;;;;;;;;;;;;;;13.54;76.32;101160.66;1615301;88;20137;-77
2021/07/11 02:51:56;;;;;;;;;;;;;;;13.53;76.31;101161.54;1613481;88;20111;-77
2021/07/11 02:54:25;;;;;;;;;;;;;;;13.54;76.42;101164.55;1612815;88;20117;-77
2021/07/11 02:57:11;;;;;;;;;;;;;;;13.54;76.26;101168.45;1614718;88;20125;-77
2021/07/11 02:59:37;;;;;;;;;;;;;;;13.41;75.99;101170.05;1611215;88;20240;-77
2021/07/11 03:02:06;;;;;;;;;;;;;;;13.29;75.68;101176.76;1614121;88;20192;-77
2021/07/11 03:04:34;;;;;;;;;;;;;;;13.24;76.26;101172.95;1610087;88;20464;-77
2021/07/11 03:07:00;;;;;;;;;;;;;;;13.28;76.35;101179.80;1593751;88;20220;-77
2021/07/11 03:09:27;;;;;;;;;;;;;;;13.27;76.40;101177.23;1614393;88;20188;-77
2021/07/11 03:11:53;;;;;;;;;;;;;;;13.30;76.59;101188.42;1615532;87;20172;-77
2021/07/11 03:14:21;;;;;;;;;;;;;;;13.32;76.61;101181.90;1615593;87;20104;-77
2021/07/11 03:16:51;;;;;;;;;;;;;;;13.34;76.62;101186.63;1619598;87;20192;-77
2021/07/11 03:19:18;;;;;;;;;;;;;;;13.36;76.60;101190.91;1613371;88;20100;-77
2021/07/11 03:21:46;;;;;;;;;;;;;;;13.34;76.44;101186.18;1609688;88;20555;-77
2021/07/11 03:24:13;;;;;;;;;;;;;;;13.33;76.52;101190.96;1613427;87;21370;-77
2021/07/11 03:26:40;;;;;;;;;;;;;;;13.36;76.67;101188.75;1612761;87;20214;-77
2021/07/11 03:29:28;;;;;;;;;;;;;;;13.38;76.65;101188.28;1594619;88;20456;-77
2021/07/11 03:31:57;;;;;;;;;;;;;;;13.35;76.39;101190.94;1611402;87;20194;-77
2021/07/11 03:34:31;;;;;;;;;;;;;;;13.36;76.61;101188.31;1602040;88;20220;-77
2021/07/11 03:37:07;;;;;;;;;;;;;;;13.38;76.65;101190.44;1601912;88;20210;-77
2021/07/11 03:39:37;;;;;;;;;;;;;;;13.42;76.80;101186.05;1602299;88;20157;-77
2021/07/11 03:42:01;;;;;;;;;;;;;;;13.48;76.91;101194.58;1609721;88;20123;-77
2021/07/11 03:44:29;;;;;;;;;;;;;;;13.54;76.99;101197.47;1603782;88;20138;-76
2021/07/11 03:46:56;;;;;;;;;;;;;;;13.59;76.91;101196.95;1613724;86;20552;-76
2021/07/11 03:49:22;;;;;;;;;;;;;;;13.61;76.96;101199.08;1603828;88;20106;-76
2021/07/11 03:51:48;;;;;;;;;;;;;;;13.65;76.79;101196.83;1603662;88;20266;-76
2021/07/11 03:54:15;;;;;;;;;;;;;;;13.70;77.08;101196.73;1603835;88;20111;-76
2021/07/11 03:56:43;;;;;;;;;;;;;;;13.78;77.15;101197.01;1605106;88;20608;-76
2021/07/11 03:59:10;;;;;;;;;;;;;;;13.84;77.21;101198.19;1603855;88;20118;-76
2021/07/11 04:01:36;;;;;;;;;;;;;;;13.94;77.27;101198.86;1603684;88;20137;-76
2021/07/11 04:04:06;;;;;;;;;;;;;;;13.99;77.18;101203.52;1605796;88;20130;-76
2021/07/11 04:06:32;;;;;;;;;;;;;;;14.04;77.23;101211.19;1603784;88;20114;-76
2021/07/11 04:09:01;;;;;;;;;;;;;;;14.08;77.05;101200.70;1603851;88;20134;-76
2021/07/11 04:11:27;;;;;;;;;;;;;;;14.18;77.38;101201.36;1603708;88;20094;-76
2021/07/11 04:13:53;;;;;;;;;;;;;;;14.39;77.69;101205.24;1603885;88;20110;-77
2021/07/11 04:16:22;;;;;;;;;;;;;;;14.67;77.78;101208.08;1604591;88;20180;-77
2021/07/11 04:18:50;;;;;;;;;;;;;;;14.96;77.73;101208.25;1590478;89;20131;-77
2021/07/11 04:21:17;;;;;;;;;;;;;;;15.14;77.39;101207.76;1603711;88;20143;-77
2021/07/11 04:23:44;;;;;;;;;;;;;;;15.24;77.25;101207.93;1603639;88;20095;-77
2021/07/11 04:26:12;;;;;;;;;;;;;;;15.32;77.19;101205.58;1603436;88;20131;-77
2021/07/11 04:28:40;;;;;;;;;;;;;;;15.39;77.28;101208.43;1603870;88;20147;-77
2021/07/11 04:31:06;;;;;;;;;;;;;;;15.47;77.34;101208.64;1603607;88;20569;-77
2021/07/11 04:33:33;;;;;;;;;;;;;;;15.55;77.33;101211.90;1603556;88;20102;-77
2021/07/11 04:36:01;;;;;;;;;;;;;;;15.62;77.36;101212.59;1603782;88;20135;-77
2021/07/11 04:38:27;;;;;;;;;;;;;;;15.68;77.35;101214.17;1602112;88;20638;-77
2021/07/11 04:40:53;;;;;;;;;;;;;;;15.74;77.47;101208.34;1601654;88;20376;-77
2021/07/11 04:43:19;;;;;;;;;;;;;;;15.83;77.53;101206.78;1595156;88;20311;-77
2021/07/11 04:45:47;;;;;;;;;;;;;;;15.93;77.58;101206.52;1600714;88;20314;-77
2021/07/11 04:48:14;;;;;;;;;;;;;;;16.01;77.60;101205.41;1602028;88;20322;-77
2021/07/11 04:50:47;;;;;;;;;;;;;;;16.11;77.55;101205.55;1572460;89;20188;-77
2021/07/11 04:53:14;;;;;;;;;;;;;;;16.20;77.62;101204.39;1601681;88;20220;-77
2021/07/11 04:55:43;;;;;;;;;;;;;;;16.30;77.65;101203.66;1614024;88;20226;-77
2021/07/11 04:58:09;;;;;;;;;;;;;;;16.40;77.77;101200.73;1603714;88;20858;-77
2021/07/11 05:00:35;;;;;;;;;;;;;;;16.50;77.75;101199.55;1602540;88;20204;-77
2021/07/11 05:03:01;;;;;;;;;;;;;;;16.63;77.82;101197.86;1608818;88;20188;-77
2021/07/11 05:05:34;;;;;;;;;;;;;;;16.80;77.89;101200.80;1610942;88;20249;-77
2021/07/11 05:07:58;;;;;;;;;;;;;;;17.09;78.09;101208.53;1600728;88;20224;-77
2021/07/11 05:10:24;;;;;;;;;;;;;;;17.60;78.41;101206.31;1605707;88;20200;-77
2021/07/11 05:12:51;;;;;;;;;;;;;;;18.22;78.57;101199.66;1601180;88;20193;-77
2021/07/11 05:15:17;;;;;;;;;;;;;;;18.89;78.38;101202.23;1599565;88;20887;-77
2021/07/11 05:17:43;;;;;;;;;;;;;;;19.51;77.62;101206.14;1601308;88;20299;-77
2021/07/11 05:20:10;;;;;;;;;;;;;;;20.07;77.10;101205.36;1601068;88;20253;-77
2021/07/11 05:22:36;;;;;;;;;;;;;;;20.68;77.11;101205.95;1600502;88;20197;-77
2021/07/11 05:25:02;;;;;;;;;;;;;;;21.31;76.90;101205.47;1609000;88;20236;-77
2021/07/11 05:27:28;;;;;;;;;;;;;;;21.83;76.42;101202.72;1600369;88;20194;-77
2021/07/11 05:29:55;;;;;;;;;;;;;;;22.32;76.28;101200.91;1600925;88;20185;-77
2021/07/11 05:32:21;;;;;;;;;;;;;;;22.84;75.91;101200.60;1604162;85;20181;-77
2021/07/11 05:34:47;;;;;;;;;;;;;;;23.35;75.77;101203.27;1633377;85;20220;-77
2021/07/11 05:37:14;;;;;;;;;;;;;;;23.91;75.58;101202.45;1617479;87;20188;-77
2021/07/11 05:39:42;;;;;;;;;;;;;;;24.49;75.47;101201.38;1622878;87;20184;-77
2021/07/11 05:42:08;;;;;;;;;;;;;;;24.92;74.75;101203.37;1618212;87;20317;-77
2021/07/11 05:44:34;;;;;;;;;;;;;;;25.30;75.09;101210.55;1624026;87;20802;-77
2021/07/11 05:47:00;;;;;;;;;;;;;;;25.79;74.77;101209.34;1623457;87;20200;-77
2021/07/11 05:49:26;;;;;;;;;;;;;;;26.16;74.88;101208.88;1623553;87;20853;-77
2021/07/11 05:51:54;;;;;;;;;;;;;;;26.65;74.50;101218.09;1621897;87;20192;-77
2021/07/11 05:54:20;;;;;;;;;;;;;;;27.07;74.18;101213.69;1622271;87;20770;-77
2021/07/11 05:56:46;;;;;;;;;;;;;;;27.39;74.00;101213.89;1622690;87;20258;-78
2021/07/11 05:59:12;;;;;;;;;;;;;;;27.70;73.85;101215.87;1618149;87;20230;-78
2021/07/11 06:01:38;;;;;;;;;;;;;;;27.99;73.64;101210.91;1622922;86;20394;-77
2021/07/11 06:04:04;;;;;;;;;;;;;;;28.26;73.80;101206.05;1623579;87;20177;-77
2021/07/11 06:06:30;;;;;;;;;;;;;;;28.47;73.58;101204.79;1620162;87;20139;-77
2021/07/11 06:08:56;;;;;;;;;;;;;;;28.81;73.25;101202.83;1611717;87;20220;-77
2021/07/11 06:11:22;;;;;;;;;;;;;;;29.09;73.09;101205.88;1623684;87;20187;-77
2021/07/11 06:13:48;;;;;;;;;;;;;;;29.36;72.71;101206.66;1626604;87;20242;-78
2021/07/11 06:16:15;;;;;;;;;;;;;;;29.49;72.99;101201.50;1620378;87;20204;-78
2021/07/11 06:18:41;;;;;;;;;;;;;;;29.80;72.41;101205.48;1622740;87;20175;-77
2021/07/11 06:21:07;;;;;;;;;;;;;;;30.00;72.65;101212.61;1614288;87;20194;-77
2021/07/11 06:23:33;;;;;;;;;;;;;;;30.11;72.34;101204.50;1615568;87;20239;-77
2021/07/11 06:25:59;;;;;;;;;;;;;;;30.43;72.39;101204.26;1618864;87;20493;-77
2021/07/11 06:28:25;;;;;;;;;;;;;;;30.66;71.86;101202.70;1619025;87;20198;-77
2021/07/11 06:30:53;;;;;;;;;;;;;;;30.80;71.78;101202.25;1623265;87;20511;-77
2021/07/11 06:33:19;;;;;;;;;;;;;;;31.02;72.00;101199.78;1617354;87;20238;-77
2021/07/11 06:35:45;;;;;;;;;;;;;;;31.05;71.23;101201.67;1610625;87;20224;-77
2021/07/11 06:38:11;;;;;;;;;;;;;;;31.15;71.06;101201.20;1605261;88;20918;-77
2021/07/11 06:40:40;;;;;;;;;;;;;;;31.10;70.88;101202.09;1614272;88;20187;-77
2021/07/11 06:43:06;;;;;;;;;;;;;;;30.92;70.62;101196.62;1610799;88;20257;-77
2021/07/11 06:45:32;;;;;;;;;;;;;;;30.98;70.62;101198.38;1610217;87;20188;-77
2021/07/11 06:47:58;;;;;;;;;;;;;;;31.07;70.18;101202.38;1617917;87;20205;-77
2021/07/11 06:50:24;;;;;;;;;;;;;;;30.97;69.79;101200.20;1612960;88;20199;-77
2021/07/11 06:52:51;;;;;;;;;;;;;;;31.01;69.53;101197.59;1610979;88;20131;-77
2021/07/11 06:55:17;;;;;;;;;;;;;;;30.94;69.04;101193.31;1618788;87;20199;-77
2021/07/11 06:57:44;;;;;;;;;;;;;;;30.78;69.12;101193.05;1609329;87;20484;-78
2021/07/11 07:00:12;;;;;;;;;;;;;;;30.74;69.06;101183.63;1614642;88;20203;-78
2021/07/11 07:02:38;;;;;;;;;;;;;;;30.67;69.11;101191.88;1616265;87;20237;-77
2021/07/11 07:05:05;;;;;;;;;;;;;;;30.64;68.68;101185.48;1613410;87;20196;-77
2021/07/11 07:07:31;;;;;;;;;;;;;;;30.73;68.56;101190.44;1611874;88;20245;-77
2021/07/11 07:09:58;;;;;;;;;;;;;;;30.72;68.14;101192.77;1612222;88;20295;-77
2021/07/11 07:12:24;;;;;;;;;;;;;;;30.84;67.85;101191.14;1584643;88;20501;-77
2021/07/11 07:14:50;;;;;;;;;;;;;;;31.03;67.57;101185.43;1587595;88;20223;-77
2021/07/11 07:17:16;;;;;;;;;;;;;;;31.15;67.60;101186.99;1582178;88;20174;-77
2021/07/11 07:19:42;;;;;;;;;;;;;;;31.36;66.81;101188.11;1589814;88;20485;-78
2021/07/11 07:22:08;;;;;;;;;;;;;;;31.26;66.75;101193.48;1590182;88;20250;-78
2021/07/11 07:24:34;;;;;;;;;;;;;;;31.35;66.55;101182.41;1590302;88;20484;-78
2021/07/11 07:27:01;;;;;;;;;;;;;;;31.22;66.35;101182.73;1590678;88;20532;-78
2021/07/11 07:29:27;;;;;;;;;;;;;;;31.36;66.66;101188.95;1590215;88;20205;-78
2021/07/11 07:31:53;;;;;;;;;;;;;;;31.55;66.41;101184.88;1585004;88;20792;-78
2021/07/11 07:34:19;;;;;;;;;;;;;;;31.82;65.95;101183.23;1581798;88;20136;-78
2021/07/11 07:36:45;;;;;;;;;;;;;;;31.83;65.45;101180.41;1584650;88;20698;-78
2021/07/11 07:39:12;;;;;;;;;;;;;;;31.75;65.35;101175.45;1580250;88;20193;-78
2021/07/11 07:41:38;;;;;;;;;;;;;;;31.72;65.49;101176.58;1579408;88;20160;-78
2021/07/11 07:44:05;;;;;;;;;;;;;;;31.73;65.30;101169.41;1588194;88;20180;-78
2021/07/11 07:46:34;;;;;;;;;;;;;;;31.84;65.10;101173.22;1589457;88;20132;-78
2021/07/11 07:49:00;;;;;;;;;;;;;;;31.96;65.09;101176.05;1586662;88;21691;-78
2021/07/11 07:51:27;;;;;;;;;;;;;;;32.09;64.60;101168.51;1580610;88;20139;-77
2021/07/11 07:54:08;;;;;;;;;;;;;;;32.24;64.23;101164.33;1591304;88;20104;-77
2021/07/11 07:56:34;;;;;;;;;;;;;;;32.31;63.54;101159.70;1593054;88;20134;-77
2021/07/11 07:59:00;;;;;;;;;;;;;;;32.34;63.58;101164.75;1592349;88;20137;-77
2021/07/11 08:01:32;;;;;;;;;;;;;;;32.18;62.79;101162.75;1591980;88;20141;-77
2021/07/11 08:03:59;;;;;;;;;;;;;;;32.08;62.69;101156.61;1596201;88;20093;-77
2021/07/11 08:06:25;;;;;;;;;;;;;;;31.91;62.32;101155.59;1592602;88;20121;-77
2021/07/11 08:08:54;;;;;;;;;;;;;;;31.83;62.37;101166.19;1592572;88;20105;-77
2021/07/11 08:11:20;;;;;;;;;;;;;;;31.72;63.04;101159.20;1592587;88;20401;-77
2021/07/11 08:13:46;;;;;;;;;;;;;;;31.54;62.14;101153.79;1589188;88;20121;-77
2021/07/11 08:16:12;;;;;;;;;;;;;;;31.44;61.83;101156.99;1585625;88;20442;-78
2021/07/11 08:18:38;;;;;;;;;;;;;;;31.31;61.14;101155.14;1582652;88;20096;-77
2021/07/11 08:21:04;;;;;;;;;;;;;;;31.22;61.13;101166.70;1585664;88;20439;-77
2021/07/11 08:23:31;;;;;;;;;;;;;;;30.84;60.66;101154.25;1590567;88;20481;-77
2021/07/11 08:25:57;;;;;;;;;;;;;;;30.53;60.86;101157.56;1591804;88;20189;-77
2021/07/11 08:28:25;;;;;;;;;;;;;;;30.25;60.36;101153.39;1585752;88;20237;-77
2021/07/11 08:30:51;;;;;;;;;;;;;;;30.33;60.70;101156.70;1584270;88;20223;-77
2021/07/11 08:33:17;;;;;;;;;;;;;;;30.47;60.31;101152.29;1588761;88;20519;-78
2021/07/11 08:35:43;;;;;;;;;;;;;;;30.49;60.15;101153.48;1588616;88;20231;-77
2021/07/11 08:38:09;;;;;;;;;;;;;;;30.52;59.82;101151.38;1588030;86;20202;-77
2021/07/11 08:40:36;;;;;;;;;;;;;;;30.59;59.61;101153.87;1579240;88;20897;-77
2021/07/11 08:43:05;;;;;;;;;;;;;;;30.32;58.84;101163.51;1585169;88;20459;-76
2021/07/11 08:45:32;;;;;;;;;;;;;;;29.98;58.79;101159.86;1605517;88;20484;-77
2021/07/11 08:47:59;;;;;;;;;;;;;;;29.76;58.88;101156.91;1600635;88;20205;-77
2021/07/11 08:50:25;;;;;;;;;;;;;;;29.57;58.64;101163.53;1603055;89;20804;-77
2021/07/11 08:52:52;;;;;;;;;;;;;;;29.33;58.66;101164.64;1602594;89;20485;-77
2021/07/11 08:55:21;;;;;;;;;;;;;;;29.01;58.66;101165.24;1607314;88;20476;-77
2021/07/11 08:57:50;;;;;;;;;;;;;;;28.78;58.51;101170.30;1606790;88;20564;-77
2021/07/11 09:00:17;;;;;;;;;;;;;;;28.66;58.55;101161.02;1596917;89;20546;-77
2021/07/11 09:02:43;;;;;;;;;;;;;;;28.82;58.64;101166.44;1607764;88;20236;-77
2021/07/11 09:05:30;;;;;;;;;;;;;;;29.24;58.45;101167.25;1595553;88;20465;-77
2021/07/11 09:08:01;;;;;;;;;;;;;;;29.49;58.05;101166.86;1608058;87;20217;-77
2021/07/11 09:10:29;;;;;;;;;;;;;;;29.65;57.60;101169.00;1614581;87;20205;-77
2021/07/11 09:12:55;;;;;;;;;;;;;;;29.95;57.58;101168.98;1616173;88;20141;-77
2021/07/11 09:15:32;;;;;;;;;;;;;;;30.28;57.25;101158.94;1613478;88;20519;-77
2021/07/11 09:17:59;;;;;;;;;;;;;;;30.64;56.98;101167.28;1621152;88;20489;-77
2021/07/11 09:20:26;;;;;;;;;;;;;;;30.94;56.79;101161.75;1613790;88;20440;-77
2021/07/11 09:23:01;;;;;;;;;;;;;;;30.99;56.43;101163.50;1616405;88;20421;-77
2021/07/11 09:25:27;;;;;;;;;;;;;;;31.02;56.58;101161.04;1616386;87;20441;-77
2021/07/11 09:27:53;;;;;;;;;;;;;;;31.09;56.56;101161.66;1616225;88;20105;-77
2021/07/11 09:30:20;;;;;;;;;;;;;;;31.02;56.69;101163.22;1615219;87;20411;-77
2021/07/11 09:32:52;;;;;;;;;;;;;;;30.49;56.51;101158.33;1596967;87;20242;-77
2021/07/11 09:35:21;;;;;;;;;;;;;;;29.86;56.44;101164.94;1615891;88;20412;-77
2021/07/11 09:37:52;;;;;;;;;;;;;;;29.35;56.32;101159.67;1615773;88;20409;-77
2021/07/11 09:40:18;;;;;;;;;;;;;;;28.97;56.37;101158.00;1623171;86;20463;-77
2021/07/11 09:42:47;;;;;;;;;;;;;;;28.72;56.26;101158.34;1615762;88;20457;-76
2021/07/11 09:45:24;;;;;;;;;;;;;;;28.48;55.99;101161.25;1615887;88;20460;-76
2021/07/11 09:47:54;;;;;;;;;;;;;;;28.22;56.00;101159.39;1615719;87;20388;-76
2021/07/11 09:50:23;;;;;;;;;;;;;;;28.03;56.02;101159.67;1618718;88;20434;-76
2021/07/11 09:52:55;;;;;;;;;;;;;;;27.85;55.60;101161.50;1618423;87;20404;-76
2021/07/11 09:55:24;;;;;;;;;;;;;;;27.61;55.67;101161.63;1622757;87;20402;-76
2021/07/11 09:57:52;;;;;;;;;;;;;;;27.51;55.67;101158.00;1615433;86;20424;-76
2021/07/11 10:00:27;;;;;;;;;;;;;;;27.40;55.42;101166.45;1614539;88;20196;-76
2021/07/11 10:02:57;;;;;;;;;;;;;;;27.23;55.41;101159.30;1621302;88;20453;-76
2021/07/11 10:05:23;;;;;;;;;;;;;;;27.06;55.28;101168.19;1614891;88;20472;-76
2021/07/11 10:07:50;;;;;;;;;;;;;;;26.84;54.96;101161.00;1613570;87;20467;-76
2021/07/11 10:10:18;;;;;;;;;;;;;;;26.73;55.33;101159.64;1613706;88;20511;-76
2021/07/11 10:12:46;;;;;;;;;;;;;;;26.73;55.42;101159.16;1615714;88;20428;-76
2021/07/11 10:15:18;;;;;;;;;;;;;;;26.75;55.17;101159.89;1614589;87;20479;-76
2021/07/11 10:17:51;;;;;;;;;;;;;;;26.71;54.86;101149.98;1614495;88;20196;-76
2021/07/11 10:20:20;;;;;;;;;;;;;;;26.73;54.91;101153.84;1613717;88;20534;-77
2021/07/11 10:22:55;;;;;;;;;;;;;;;26.78;54.74;101158.33;1614243;88;20460;-76
2021/07/11 10:25:25;;;;;;;;;;;;;;;26.80;54.95;101159.55;1614039;88;20484;-76
2021/07/11 10:28:14;;;;;;;;;;;;;;;26.76;54.43;101155.42;1614282;88;20205;-76
2021/07/11 10:30:46;;;;;;;;;;;;;;;26.67;54.50;101155.63;1612129;88;20204;-76
2021/07/11 10:33:17;;;;;;;;;;;;;;;26.61;54.40;101160.91;1624169;87;20466;-76
2021/07/11 10:35:58;;;;;;;;;;;;;;;26.63;54.39;101155.02;1614486;88;20240;-76
2021/07/11 10:38:45;;;;;;;;;;;;;;;26.70;54.54;101156.73;1615609;88;20185;-77
2021/07/11 10:41:23;;;;;;;;;;;;;;;26.69;54.31;101155.04;1613033;88;20224;-76
2021/07/11 10:44:11;;;;;;;;;;;;;;;26.61;54.26;101154.28;1614642;88;20533;-76
2021/07/11 10:46:58;;;;;;;;;;;;;;;26.64;54.08;101151.88;1614602;88;20188;-76
2021/07/11 10:49:32;;;;;;;;;;;;;;;26.69;54.27;101149.25;1614654;87;20353;-76
2021/07/11 10:52:02;;;;;;;;;;;;;;;26.62;53.81;101145.37;1614083;88;20200;-76
2021/07/11 10:54:31;;;;;;;;;;;;;;;26.54;53.79;101150.88;1614297;88;20231;-76
2021/07/11 10:57:00;;;;;;;;;;;;;;;26.45;53.80;101143.15;1592722;88;20195;-76
2021/07/11 10:59:34;;;;;;;;;;;;;;;26.43;53.70;101133.61;1614196;88;20765;-76
2021/07/11 11:02:03;;;;;;;;;;;;;;;26.46;53.81;101136.89;1614965;87;20168;-76
2021/07/11 11:04:29;;;;;;;;;;;;;;;26.47;53.64;101139.91;1615174;88;20128;-76
2021/07/11 11:06:55;;;;;;;;;;;;;;;26.49;53.53;101137.14;1614155;87;20191;-77
2021/07/11 11:09:25;;;;;;;;;;;;;;;26.50;53.62;101133.05;1614226;88;20212;-77
2021/07/11 11:11:51;;;;;;;;;;;;;;;26.61;53.51;101137.05;1610977;88;20192;-76
2021/07/11 11:14:21;;;;;;;;;;;;;;;26.68;53.56;101132.13;1614017;87;20197;-76
2021/07/11 11:16:49;;;;;;;;;;;;;;;26.66;53.31;101130.06;1613097;88;20140;-76
2021/07/11 11:19:15;;;;;;;;;;;;;;;26.69;53.46;101125.37;1614325;88;20971;-76
2021/07/11 11:21:42;;;;;;;;;;;;;;;26.77;53.35;101126.13;1614597;88;20192;-77
2021/07/11 11:24:08;;;;;;;;;;;;;;;26.81;53.17;101120.11;1613156;88;20263;-77
2021/07/11 11:26:35;;;;;;;;;;;;;;;26.84;53.17;101130.48;1592032;87;38971;-77
2021/07/11 11:29:02;;;;;;;;;;;;;;;26.87;53.12;101121.81;1614131;87;20856;-77
2021/07/11 11:31:33;;;;;;;;;;;;;;;26.98;53.31;101127.66;1616261;87;20568;-77
2021/07/11 11:34:05;;;;;;;;;;;;;;;27.08;53.12;101133.92;1617567;88;20093;-77
2021/07/11 11:36:48;;;;;;;;;;;;;;;27.13;52.92;101128.27;1615870;87;20159;-76
2021/07/11 11:39:20;;;;;;;;;;;;;;;27.13;52.90;101134.42;1594644;88;20117;-76
2021/07/11 11:41:46;;;;;;;;;;;;;;;27.11;52.87;101140.81;1615788;88;20121;-76
2021/07/11 11:44:20;;;;;;;;;;;;;;;27.04;52.70;101131.14;1615962;88;20093;-76
2021/07/11 11:46:51;;;;;;;;;;;;;;;27.01;52.71;101134.06;1616050;87;20129;-76
2021/07/11 11:49:21;;;;;;;;;;;;;;;27.01;52.45;101132.25;1616086;87;20101;-77
2021/07/11 11:51:52;;;;;;;;;;;;;;;26.96;52.48;101138.87;1615347;87;20105;-77
2021/07/11 11:54:38;;;;;;;;;;;;;;;26.87;52.29;101134.23;1621175;88;20186;-77
2021/07/11 11:57:07;;;;;;;;;;;;;;;26.84;52.59;101126.02;1613630;88;20176;-76
2021/07/11 11:59:34;;;;;;;;;;;;;;;26.88;52.51;101122.17;1624286;88;20144;-76
2021/07/11 12:02:05;;;;;;;;;;;;;;;27.01;52.46;101124.29;1615845;88;20104;-76
2021/07/11 12:04:33;;;;;;;;;;;;;;;27.18;52.34;101126.09;1619862;87;20192;-77
2021/07/11 12:07:01;;;;;;;;;;;;;;;27.31;52.36;101129.49;1614752;88;20224;-77
2021/07/11 12:09:29;;;;;;;;;;;;;;;27.38;52.26;101119.23;1613880;88;20196;-77
2021/07/11 12:12:03;;;;;;;;;;;;;;;27.45;52.32;101121.30;1614162;88;20188;-77
2021/07/11 12:14:30;;;;;;;;;;;;;;;27.54;52.27;101123.70;1614370;88;20292;-76
2021/07/11 12:17:04;;;;;;;;;;;;;;;27.48;51.72;101122.38;1618217;87;20221;-77
2021/07/11 12:19:32;;;;;;;;;;;;;;;27.43;51.81;101117.06;1613871;88;20195;-77
2021/07/11 12:21:58;;;;;;;;;;;;;;;27.41;51.60;101117.19;1612760;87;20216;-77
2021/07/11 12:24:26;;;;;;;;;;;;;;;27.36;51.68;101102.09;1614125;87;20179;-77
2021/07/11 12:26:55;;;;;;;;;;;;;;;27.40;51.80;101106.69;1626033;84;20191;-77
2021/07/11 12:29:29;;;;;;;;;;;;;;;27.42;51.91;101106.92;1614016;88;20342;-77
2021/07/11 12:32:05;;;;;;;;;;;;;;;27.40;51.55;101098.72;1612219;87;20362;-76
2021/07/11 12:34:31;;;;;;;;;;;;;;;27.49;51.70;101101.98;1611621;87;20137;-76
2021/07/11 12:37:00;;;;;;;;;;;;;;;27.52;51.18;101088.45;1613945;88;20121;-75
2021/07/11 12:39:27;;;;;;;;;;;;;;;27.44;51.51;101098.35;1608496;87;20156;-75
2021/07/11 12:41:54;;;;;;;;;;;;;;;27.36;51.41;101091.47;1582234;89;20144;-75